x

8413320 - Bar Harbor, Me (atgm1) Weather Station

10:54 - Tue 27th Jun 2017 All times are EDT. -4 hours from GMT.

  • Wind
    7mph, 9mph gusts
  • Sea Temp 51°f
  • Ar Temp 53°f
  • Sea Pressure 1013.2mb
  • 8413320 - Bar Harbor, Me
  • 8413320 - Bar Harbor, Me

More Historic Weather Station data

Upgrade to MSW Pro to gain access to the past 30 days of data for over 8000 Wavebouys and Weather Stations around the globe.

Join Pro

Comparision Forecast

View Surf forecast
   
Ter 06/27 10:54 7 9 mph 1013.2mb 51f 53f
10:48 8 11 mph 1013.3mb 51f 53f
10:42 9 14 mph 1013.2mb 52f 53f
10:36 11 15 mph 1013.3mb 52f 53f
10:30 8 10 mph 1013.3mb 52f 55f
10:24 6 9 mph 1013.2mb 52f 55f
10:18 7 8 mph 1013.4mb 51f 55f
10:12 6 7 mph 1013.4mb 52f 56f
10:06 3 5 mph 1013.3mb 52f 56f
10:00 2 6 mph 1013.4mb 52f 57f
9:54 3 8 mph 1013.5mb 52f 60f
9:48 2 6 mph 1013.6mb 52f 59f
9:42 3 6 mph 1013.6mb 52f 58f
9:36 5 6 mph 1013.8mb 52f 55f
9:30 5 7 mph 1013.7mb 52f 55f
9:24 5 6 mph 1013.5mb 52f 55f
9:18 5 8 mph 1013.5mb 52f 55f
9:12 8 9 mph 1013.4mb 52f 56f
9:06 8 9 mph 1013.2mb 52f 56f
9:00 7 9 mph 1013.2mb 53f 61f
8:54 6 11 mph 1013mb 53f 62f
8:48 9 15 mph 1013.2mb 53f 62f
8:42 8 14 mph 1013mb 53f 62f
8:36 8 14 mph 1012.8mb 53f 62f
8:30 9 16 mph 1012.7mb 52f 63f
8:24 9 15 mph 1012.7mb 52f 63f
8:18 9 18 mph 1012.9mb 53f 64f
8:12 9 14 mph 1012.9mb 53f 64f
8:06 13 18 mph 1012.8mb 53f 64f
8:00 9 14 mph 1012.9mb 53f 65f
7:54 7 18 mph 1012.8mb 53f 65f
7:48 14 25 mph 1012.7mb 53f 65f
7:42 11 21 mph 1012.6mb 52f 66f
7:36 10 16 mph 1012.6mb 52f 66f
7:30 7 15 mph 1012.6mb 52f 66f
7:24 7 11 mph 1012.6mb 53f 66f
7:18 6 14 mph 1012.7mb 53f 66f
7:12 8 15 mph 1012.8mb 53f 66f
7:06 9 15 mph 1012.7mb 53f 65f
7:00 7 11 mph 1012.7mb 53f 65f
6:54 7 14 mph 1012.7mb 53f 64f
6:48 7 13 mph 1012.7mb 53f 64f
6:42 5 10 mph 1012.7mb 52f 64f
6:36 5 9 mph 1012.7mb 53f 65f
6:30 5 13 mph 1012.8mb 53f 65f
6:24 6 14 mph 1012.7mb 53f 65f
6:18 6 13 mph 1012.8mb 52f 66f
6:12 7 17 mph 1012.8mb 52f 66f
6:06 6 13 mph 1012.9mb 52f 66f
6:00 3 9 mph 1012.9mb 52f 66f
5:54 5 13 mph 1012.8mb 52f 66f
5:48 8 13 mph 1012.8mb 52f 66f
5:42 6 11 mph 1012.7mb 52f 68f
5:36 5 13 mph 1012.7mb 52f 65f
5:30 6 14 mph 1012.7mb 52f 64f
5:24 7 13 mph 1012.7mb 51f 62f
5:18 7 11 mph 1012.7mb 52f 62f
5:12 8 13 mph 1012.8mb 52f 62f
5:06 2 11 mph 1012.8mb 52f 69f
5:00 8 14 mph 1012.8mb 52f 69f
4:54 5 10 mph 1012.9mb 52f 65f
4:48 5 10 mph 1012.9mb 53f 68f
4:42 3 7 mph 1013mb 53f 66f
4:36 6 15 mph 1012.9mb 52f 68f
4:30 3 15 mph 1013mb 53f 69f
4:24 6 9 mph 1013.1mb 52f 70f
4:18 5 10 mph 1013.2mb 52f 70f
4:12 8 14 mph 1013.2mb 52f 70f
4:06 6 11 mph 1013.2mb 52f 71f
4:00 3 10 mph 1013.1mb 52f 70f
3:54 5 11 mph 1013.3mb 52f 67f
3:48 5 11 mph 1013.3mb 52f 68f
3:42 6 10 mph 1013.4mb 51f 67f
3:36 6 11 mph 1013.4mb 51f 70f
3:30 7 11 mph 1013.5mb 51f 70f
3:24 6 13 mph 1013.7mb 51f 70f
3:18 5 13 mph 1013.7mb 51f 70f
3:12 5 8 mph 1013.7mb 51f 69f
3:06 5 7 mph 1013.9mb 51f 70f
3:00 1 8 mph 1014.1mb 52f 68f
2:54 3 9 mph 1014.1mb 51f 68f
2:48 6 8 mph 1014.1mb 51f 67f
2:42 6 9 mph 1014.1mb 50f 66f
2:36 3 6 mph 1014.1mb 50f 68f
2:30 5 7 mph 1014.2mb 50f 69f
2:24 2 6 mph 1014.3mb 50f 67f
2:18 3 10 mph 1014.3mb 50f 64f
2:12 3 8 mph 1014.2mb 50f 66f
2:06 3 8 mph 1014.2mb 51f 70f
2:00 2 6 mph 1014.2mb 51f 67f
1:54  -  6 mph 1014.2mb 50f 66f
1:48 6 13 mph 1014.3mb 50f 63f
1:42 8 11 mph 1014.3mb 51f 71f
1:36 6 9 mph 1014.4mb 51f 71f
1:30 6 11 mph 1014.4mb 51f 71f
1:24 10 14 mph 1014.4mb 51f 71f
1:18 8 14 mph 1014.4mb 51f 71f
1:12 7 14 mph 1014.4mb 53f 72f
1:06 9 13 mph 1014.4mb 53f 72f
1:00 8 13 mph 1014.4mb 53f 73f
12:54 10 15 mph 1014.5mb 53f 72f
12:48 6 15 mph 1014.6mb 53f 73f
12:42 7 13 mph 1014.6mb 53f 71f
12:36 8 13 mph 1014.6mb 53f 72f
12:30 7 14 mph 1014.7mb 53f 72f
12:24 3 8 mph 1014.7mb 53f 72f
12:18 2 7 mph 1014.7mb 54f 69f
12:12 5 14 mph 1014.7mb 53f 72f
12:06 6 9 mph 1014.7mb 53f 72f
12:00 6 13 mph 1014.7mb 53f 70f
11:54 11 13 mph 1014.8mb 53f 62f
11:48 9 14 mph 1014.8mb 53f 62f
11:42 14 18 mph 1014.8mb 53f 55f
11:36 11 14 mph 1015mb 53f 58f
11:30 11 16 mph 1015mb 53f 59f
11:24 8 15 mph 1015mb 53f 62f
11:18 13 15 mph 1015mb 53f 59f
11:12 11 14 mph 1015mb 53f 61f
11:06 10 14 mph 1014.9mb 53f 64f
11:00 9 11 mph 1014.8mb 53f 63f
10:54 6 10 mph 1014.7mb 53f 63f
10:48 10 18 mph 1014.7mb 53f 58f
10:42 14 18 mph 1014.8mb 53f 55f
10:36 5 9 mph 1014.6mb 53f 62f
10:30 8 15 mph 1014.6mb 53f 58f
10:24 14 17 mph 1014.7mb 53f 55f
10:18 13 15 mph 1014.7mb 53f 54f
10:12 13 15 mph 1014.7mb 53f 55f
10:06 11 16 mph 1014.7mb 53f 55f
10:00 13 16 mph 1014.7mb 53f 55f
9:54 11 16 mph 1014.7mb 53f 55f
9:48 15 16 mph 1014.8mb 53f 54f
9:42 13 16 mph 1014.8mb 53f 54f
9:36 11 14 mph 1014.7mb 53f 55f
9:30 13 16 mph 1014.8mb 53f 54f
9:24 14 17 mph 1015mb 53f 53f
9:18 11 16 mph 1015mb 53f 54f
9:12 10 15 mph 1015.1mb 52f 54f
9:06 6 14 mph 1015.1mb 52f 55f
9:00 6 11 mph 1015.1mb 52f 55f
8:54 8 13 mph 1015mb 53f 55f
8:48 8 11 mph 1015.1mb 52f 54f
8:42 8 10 mph 1015.1mb 52f 54f
8:36 7 8 mph 1015.1mb 52f 55f
8:30 7 10 mph 1015mb 52f 55f
8:24 9 10 mph 1014.9mb 52f 53f
8:18 8 10 mph 1015mb 53f 53f
8:12 7 11 mph 1015mb 53f 53f
8:06 9 14 mph 1015mb 53f 53f
8:00 8 11 mph 1015.1mb 53f 54f
7:54 8 11 mph 1015mb 53f 53f
7:48 8 13 mph 1014.9mb 53f 54f
7:42 9 13 mph 1014.9mb 53f 53f
7:36 10 13 mph 1014.9mb 52f 53f
7:30 9 11 mph 1014.9mb 52f 53f
7:24 6 8 mph 1014.9mb 52f 54f
7:18 6 8 mph 1014.8mb 52f 54f
7:12 7 8 mph 1014.9mb 52f 53f
7:06 7 7 mph 1015mb 52f 53f
7:00 5 6 mph 1014.9mb 52f 54f
6:54 3 5 mph 1015mb 52f 55f
6:48 3 7 mph 1014.8mb 52f 55f
6:42 6 7 mph 1014.9mb 53f 54f
6:36 3 6 mph 1014.9mb 53f 55f
6:30 1 2 mph 1014.8mb 52f 56f
6:24 1 2 mph 1014.7mb 52f 55f
6:18 2 2 mph 1014.7mb 52f 54f
6:12  -  2 mph 1014.7mb 52f 54f
6:06 2 2 mph 1014.8mb 52f 53f
6:00  -  2 mph 1014.8mb 52f 53f
5:54 3 3 mph 1014.7mb 52f 53f
5:48 2 3 mph 1014.8mb 52f 53f
5:42 3 5 mph 1014.8mb 52f 53f
5:36 5 7 mph 1014.8mb 52f 53f
5:30 2 3 mph 1014.8mb 52f 53f
5:24 2 5 mph 1014.7mb 52f 53f
5:18 5 8 mph 1014.6mb 52f 53f
5:12 3 6 mph 1014.5mb 52f 53f
5:06 2 5 mph 1014.4mb 52f 53f
5:00 3 5 mph 1014.4mb 52f 53f
4:54  -  5 mph 1014.4mb 52f 54f
4:48 2 7 mph 1014.4mb 52f 54f
4:42 8 9 mph 1014.4mb 51f 54f
4:36 3 5 mph 1014.2mb 51f 55f
4:30 2 3 mph 1014.2mb 52f 55f
4:24 1 3 mph 1014.2mb 52f 55f
4:18 2 3 mph 1014.2mb 52f 55f
4:12 1 2 mph 1014.2mb 52f 55f
4:06 2 3 mph 1014.2mb 52f 55f
4:00 1 2 mph 1014.1mb 52f 55f
3:54 1 2 mph 1014.2mb 52f 55f
3:48 2 3 mph 1014.1mb 52f 56f
3:42 1 3 mph 1014.1mb 52f 56f
3:36 3 6 mph 1014mb 52f 56f
3:30 1 2 mph 1013.9mb 51f 56f
3:24 1 1 mph 1013.9mb 51f 57f
3:18 2 2 mph 1013.9mb 51f 56f
3:12 1 2 mph 1013.9mb 51f 55f
3:06  -  1 mph 1013.9mb 51f 56f
3:00 1 2 mph 1014mb 51f 57f
2:54  -  1 mph 1013.9mb 50f 57f
2:48 1 5 mph 1013.9mb 50f 56f
2:42 5 6 mph 1013.9mb 50f 57f
2:36 5 6 mph 1013.9mb 50f 57f
2:30 5 6 mph 1013.9mb 50f 57f
2:24 5 6 mph 1013.8mb 50f 57f
2:18 3 5 mph 1013.8mb 50f 58f
2:12 2 3 mph 1013.8mb 52f 58f
2:06 2 6 mph 1013.7mb 53f 59f
2:00 3 6 mph 1013.8mb 52f 59f
1:54 2 5 mph 1013.8mb 53f 60f
1:48 2 3 mph 1013.8mb 53f 60f
1:42 3 5 mph 1013.7mb 51f 60f
1:36 3 5 mph 1013.8mb 51f 60f
1:30 3 6 mph 1013.8mb 51f 61f
1:24 3 8 mph 1013.8mb 51f 62f
1:18 6 8 mph 1013.8mb 50f 65f
1:12 7 10 mph 1013.7mb 50f 66f
1:06 8 11 mph 1013.7mb 51f 66f
1:00 6 11 mph 1013.8mb 50f 66f
12:54 8 11 mph 1013.8mb 50f 66f
12:48 6 10 mph 1013.8mb 50f 65f
12:42 6 9 mph 1013.8mb 51f 65f
12:36 6 9 mph 1013.7mb 50f 64f
12:30 7 10 mph 1013.7mb 50f 64f
12:24 7 9 mph 1013.7mb 50f 64f
12:18 6 9 mph 1013.7mb 50f 64f
12:12 6 7 mph 1013.8mb 50f 64f
12:06 6 8 mph 1013.8mb 50f 65f
12:00 6 8 mph 1013.8mb 50f 65f
Seg 06/26 11:54 7 9 mph 1013.9mb 50f 65f
11:48 6 10 mph 1013.8mb 50f 65f
11:42 8 13 mph 1013.8mb 50f 65f
11:36 8 13 mph 1013.8mb 50f 65f
11:30 7 13 mph 1013.8mb 50f 65f
11:24 8 13 mph 1013.8mb 50f 65f
11:18 9 14 mph 1013.8mb 49f 65f
11:12 8 10 mph 1013.8mb 49f 65f
11:06 7 10 mph 1013.8mb 49f 65f
11:00 7 9 mph 1013.9mb 50f 65f
10:54 8 11 mph 1013.8mb 50f 65f
10:48 9 11 mph 1013.8mb 50f 65f
10:42 7 9 mph 1013.7mb 50f 64f
10:36 6 9 mph 1013.7mb 50f 64f
10:30 7 8 mph 1013.7mb 50f 65f
10:24 6 9 mph 1013.7mb 50f 65f
10:18 6 10 mph 1013.7mb 51f 65f
10:12 8 11 mph 1013.6mb 51f 65f
10:06 7 11 mph 1013.7mb 50f 65f
10:00 8 11 mph 1013.7mb 50f 66f
9:54 9 15 mph 1013.7mb 51f 66f
9:48 9 14 mph 1013.6mb 51f 66f
9:42 10 14 mph 1013.5mb 51f 66f
9:36 9 13 mph 1013.6mb 51f 66f
9:30 10 15 mph 1013.5mb 51f 66f
9:24 10 14 mph 1013.5mb 51f 65f
9:18 10 13 mph 1013.4mb 51f 65f
9:12 8 14 mph 1013.4mb 51f 65f
9:06 10 13 mph 1013.3mb 51f 65f
9:00 10 14 mph 1013.3mb 51f 65f
8:54 10 14 mph 1013.2mb 51f 65f
8:48 10 16 mph 1013.2mb 52f 65f
8:42 8 16 mph 1013.1mb 52f 65f
8:36 10 15 mph 1013mb 52f 66f
8:30 9 14 mph 1013mb 52f 66f
8:24 10 14 mph 1012.9mb 52f 66f
8:18 9 14 mph 1012.8mb 52f 67f
8:12 8 13 mph 1012.8mb 53f 68f
8:06 9 13 mph 1012.7mb 53f 68f
8:00 8 11 mph 1012.7mb 53f 69f
7:54 8 11 mph 1012.6mb 53f 69f
7:48 8 11 mph 1012.6mb 53f 69f
7:42 7 10 mph 1012.5mb 53f 69f
7:36 6 8 mph 1012.4mb 53f 70f
7:30 8 11 mph 1012.3mb 53f 70f
7:24 6 10 mph 1012.3mb 53f 70f
7:18 6 9 mph 1012.2mb 53f 70f
7:12 8 10 mph 1012.1mb 53f 71f
7:06 7 10 mph 1012mb 53f 71f
7:00 3 9 mph 1011.9mb 53f 71f
6:54 9 13 mph 1011.8mb 54f 71f
6:48 7 10 mph 1011.8mb 54f 71f
6:42 7 11 mph 1011.7mb 53f 71f
6:36 9 13 mph 1011.7mb 53f 71f
6:30 6 13 mph 1011.6mb 53f 72f
6:24 7 14 mph 1011.6mb 54f 72f
6:18 9 16 mph 1011.5mb 53f 72f
6:12 8 15 mph 1011.5mb 54f 72f
6:06 7 9 mph 1011.4mb 54f 72f
6:00 6 13 mph 1011.4mb 54f 71f
5:54 10 15 mph 1011.2mb 53f 71f
5:48 11 15 mph 1011.2mb 53f 72f
5:42 9 15 mph 1011.2mb 53f 71f
5:36 9 13 mph 1011.2mb 53f 70f
5:30 8 15 mph 1011.2mb 53f 72f
5:24 8 10 mph 1011.2mb 53f 71f
5:18 9 14 mph 1011.2mb 53f 70f
5:12 11 17 mph 1011.1mb 52f 71f
5:06 8 14 mph 1011.1mb 52f 72f
5:00 9 15 mph 1011mb 51f 72f
4:54 11 16 mph 1010.9mb 52f 72f
4:48 10 15 mph 1010.9mb 52f 72f
4:42 8 16 mph 1011mb 52f 73f
4:36 8 14 mph 1010.9mb 52f 73f
4:30 10 15 mph 1010.9mb 52f 72f
4:24 9 14 mph 1010.9mb 53f 72f
4:18 13 15 mph 1011mb 52f 72f
4:12 10 18 mph 1011mb 52f 72f
4:06 11 17 mph 1011mb 52f 72f
4:00 10 14 mph 1011mb 52f 72f
3:54 6 15 mph 1011mb 52f 72f
3:48 10 17 mph 1011mb 52f 72f
3:42 8 14 mph 1011mb 51f 72f
3:36 11 16 mph 1011mb 51f 71f
3:30 9 14 mph 1011mb 51f 71f
3:24 9 15 mph 1010.9mb 51f 72f
3:18 11 15 mph 1010.9mb 51f 71f
3:12 14 17 mph 1011mb 51f 71f
3:06 14 18 mph 1010.9mb 51f 72f
3:00 8 14 mph 1011mb 51f 72f
2:54 6 13 mph 1011mb 51f 71f
2:48 8 11 mph 1011mb 51f 71f
2:42 8 15 mph 1011mb 51f 71f
2:36 13 18 mph 1010.9mb 52f 71f
2:30 10 14 mph 1010.8mb 51f 71f
2:24 13 20 mph 1010.7mb 51f 72f
2:18 10 18 mph 1010.7mb 51f 72f
2:12 14 21 mph 1010.6mb 50f 71f
2:06 17 22 mph 1010.6mb 51f 70f
2:00 9 16 mph 1010.6mb 49f 70f
1:54 13 18 mph 1010.6mb 50f 70f
1:48 13 16 mph 1010.6mb 50f 71f
1:42 13 16 mph 1010.6mb 51f 71f
1:36 9 15 mph 1010.5mb 51f 71f
1:30 10 13 mph 1010.6mb 50f 71f
1:24 10 15 mph 1010.6mb 50f 71f
1:18 11 15 mph 1010.7mb 52f 70f
1:12 9 15 mph 1010.7mb 50f 70f
1:06 7 18 mph 1010.7mb 51f 70f
1:00 13 16 mph 1010.6mb 51f 70f
12:54 11 15 mph 1010.7mb 51f 70f
12:48 8 14 mph 1010.7mb 51f 70f
12:42 8 14 mph 1010.8mb 51f 70f
12:36 9 14 mph 1010.8mb 52f 70f
12:30 5 11 mph 1010.8mb 52f 71f
12:24 7 9 mph 1010.8mb 52f 70f
12:18 3 6 mph 1010.9mb 53f 66f
12:12 5 6 mph 1010.9mb 52f 64f
12:06 5 7 mph 1010.9mb 52f 66f
12:00 6 6 mph 1010.9mb 52f 65f
11:54 6 6 mph 1010.9mb 52f 64f
11:48 6 6 mph 1010.9mb 52f 65f
11:42 3 5 mph 1011mb 52f 65f
11:36 3 6 mph 1011.1mb 52f 66f
11:30 6 7 mph 1011mb 52f 66f
11:24 2 2 mph 1011.1mb 52f 66f
11:18 2 5 mph 1011.1mb 52f 65f
11:12 5 7 mph 1011.1mb 52f 66f
11:06 7 8 mph 1011mb 52f 66f
11:00 7 9 mph 1011mb 52f 65f
10:54 5 7 mph 1011mb 52f 65f
10:48 5 6 mph 1011mb 52f 65f
10:42 6 7 mph 1011mb 52f 65f
10:36 6 7 mph 1011mb 52f 66f
10:30 6 8 mph 1010.9mb 52f 66f
10:24 6 7 mph 1011mb 52f 65f
10:18 6 7 mph 1011mb 52f 65f
10:12 5 7 mph 1010.9mb 52f 65f
10:06 5 7 mph 1010.9mb 52f 66f
10:00 5 7 mph 1010.9mb 52f 65f
9:54 5 8 mph 1010.9mb 52f 65f
9:48 6 8 mph 1010.9mb 52f 66f
9:42 7 9 mph 1010.9mb 52f 66f
9:36 7 10 mph 1010.9mb 52f 65f
9:30 5 7 mph 1010.9mb 52f 64f
9:24 3 6 mph 1010.9mb 52f 64f
9:18 2 2 mph 1011mb 52f 63f
9:12 2 3 mph 1011mb 52f 62f
9:06 3 3 mph 1011mb 52f 60f
9:00 2 3 mph 1011mb 52f 61f
8:54  -  3 mph 1011.1mb 52f 62f
8:48 2 2 mph 1011.1mb 52f 62f
8:42  -  2 mph 1011.1mb 52f 62f
8:36  -  1 mph 1011.1mb 52f 63f
8:30  -  2 mph 1011.1mb 51f 63f
8:24  -  1 mph 1011.1mb 51f 61f
8:18 1 3 mph 1011.1mb 51f 60f
8:12 2 3 mph 1011.1mb 51f 59f
8:06 2 3 mph 1011.1mb 51f 59f
8:00 2 5 mph 1011.1mb 51f 58f
7:54 2 3 mph 1011.1mb 51f 58f
7:48 3 3 mph 1011.1mb 51f 57f
7:42 3 5 mph 1011.1mb 51f 57f
7:36 2 3 mph 1011.1mb 51f 57f
7:30 3 5 mph 1011.1mb 51f 56f
7:24 5 5 mph 1011mb 51f 56f
7:18 2 3 mph 1011mb 51f 56f
7:12  -  2 mph 1011mb 51f 57f
7:06 2 3 mph 1011mb 51f 57f
7:00 2 3 mph 1010.9mb 51f 58f
6:54 1 1 mph 1010.9mb 51f 61f
6:48 1 1 mph 1010.8mb 51f 61f
6:42  -  0 mph 1010.8mb 51f 63f
6:36  -  0 mph 1010.7mb 51f 62f
6:30  -  1 mph 1010.6mb 51f 62f
6:24  -  1 mph 1010.6mb 51f 59f
6:18  -  1 mph 1010.5mb 51f 59f
6:12  -  1 mph 1010.6mb 51f 56f
6:06  -  2 mph 1010.6mb 51f 56f
6:00 1 3 mph 1010.8mb 51f 56f
5:54  -  2 mph 1010.7mb 51f 57f
5:48  -  3 mph 1010.6mb 51f 56f
5:42 2 9 mph 1010.5mb 51f 55f
5:36 6 8 mph 1010.4mb 51f 56f
5:30 6 7 mph 1010.3mb 51f 56f
5:24 3 9 mph 1010.3mb 51f 56f
5:18 6 7 mph 1010.2mb 51f 55f
5:12  -  2 mph 1010.1mb 51f 57f
5:06  -  2 mph 1010.1mb 51f 56f
5:00 2 2 mph 1010.1mb 51f 56f
4:54  -  1 mph 1010.1mb 51f 55f
4:48  -  0 mph 1009.9mb 50f 55f
4:42  -  1 mph 1009.8mb 50f 55f
4:36 1 2 mph 1009.7mb 51f 56f
4:30 2 3 mph 1009.7mb 50f 56f
4:24 1 1 mph 1009.7mb 50f 57f
4:18 1 2 mph 1009.8mb 50f 58f
4:12  -  6 mph 1009.7mb 50f 57f
4:06 5 7 mph 1009.7mb 50f 56f
4:00 7 8 mph 1009.6mb 50f 56f
3:54 6 8 mph 1009.5mb 50f 56f
3:48 6 9 mph 1009.5mb 50f 58f
3:42 8 11 mph 1009.4mb 50f 57f
3:36 5 6 mph 1009.3mb 50f 58f
3:30  -  1 mph 1009.1mb 50f 59f
3:24  -  1 mph 1009.2mb 50f 59f
3:18  -  3 mph 1009.2mb 50f 58f
3:12 3 7 mph 1009.2mb 50f 58f
3:06 6 7 mph 1009.1mb 50f 58f
3:00 7 8 mph 1009.1mb 50f 61f
2:54 8 8 mph 1008.9mb 50f 62f
2:48 7 8 mph 1009.1mb - -
2:42 3 6 mph 1009.3mb - -
2:36 3 3 mph 1009.5mb - -
2:30 2 8 mph 1009.6mb 50f 64f
2:24 6 8 mph 1009.8mb 50f 64f
2:18 5 6 mph 1009.8mb 50f 64f
2:12 3 5 mph 1009.9mb 49f 62f
2:06 3 5 mph 1009.9mb 49f 61f
2:00 5 6 mph 1009.9mb 49f 62f
1:54 5 6 mph 1009.8mb 49f 63f
1:48 5 7 mph 1009.8mb 49f 63f
1:42 5 6 mph 1009.9mb 50f 63f
1:36 5 6 mph 1009.9mb 49f 63f
1:30 3 5 mph 1010mb 50f 64f
1:24 2 5 mph 1010mb 50f 64f
1:18 2 5 mph 1010mb 50f 64f
1:12 3 6 mph 1010.1mb 51f 64f
1:06 3 6 mph 1010.1mb 49f 64f
1:00 5 6 mph 1010.1mb 49f 64f
12:54 5 7 mph 1010mb 50f 64f
12:48 5 7 mph 1010mb 50f 64f
12:42 6 8 mph 1010mb 49f 64f
12:36 7 8 mph 1010mb 49f 64f
12:30 5 7 mph 1009.9mb 49f 63f
12:24 5 7 mph 1010mb 49f 63f
12:18 7 9 mph 1010mb 49f 62f
12:12 8 9 mph 1010mb 49f 63f
12:06 7 10 mph 1010mb 49f 64f
12:00 8 10 mph 1010.2mb 49f 64f
Dom 06/25 11:54 9 10 mph 1010.3mb 49f 64f
11:48 9 13 mph 1010.4mb 50f 65f
11:42 6 11 mph 1011.1mb 50f 65f
11:36 9 11 mph 1011.2mb 49f 65f
11:30 8 11 mph 1011.1mb 49f 65f
11:24 8 13 mph 1011.1mb 49f 66f
11:18 9 17 mph 1011mb 49f 66f
11:12 11 23 mph 1010.9mb 49f 66f
11:06 17 22 mph 1010.7mb 49f 68f
11:00 13 18 mph 1010.3mb 49f 69f
10:54 9 13 mph 1010.2mb 49f 70f
10:48 7 10 mph 1010.1mb 49f 70f
10:42 8 11 mph 1010.1mb 49f 70f
10:36 7 10 mph 1010.2mb 49f 70f
10:30 8 13 mph 1010.1mb 49f 70f
10:24 9 13 mph 1010.2mb 49f 70f
10:18 7 11 mph 1010.3mb 49f 70f
10:12 7 13 mph 1010.3mb 49f 70f
10:06 7 13 mph 1010.2mb 49f 70f
10:00 7 10 mph 1010.2mb 49f 70f
9:54 8 13 mph 1010.2mb 50f 71f
9:48 8 14 mph 1010.2mb 50f 71f
9:42 7 13 mph 1010.3mb 50f 71f
9:36 9 14 mph 1010.3mb 50f 71f
9:30 10 13 mph 1010.2mb 50f 71f
9:24 8 14 mph 1010.2mb 51f 71f
9:18 8 15 mph 1010.2mb 51f 71f
9:12 9 17 mph 1010.2mb 51f 71f
9:06 13 17 mph 1010.2mb 51f 71f
9:00 10 18 mph 1010.1mb 51f 71f
8:54 11 21 mph 1010.1mb 51f 71f
8:48 9 16 mph 1010mb 51f 71f
8:42 7 16 mph 1009.9mb 51f 70f
8:36 7 16 mph 1009.9mb 52f 71f
8:30 11 17 mph 1009.9mb 52f 70f
8:24 9 17 mph 1010mb 52f 70f
8:18 7 13 mph 1010.1mb 52f 69f
8:12 6 14 mph 1010.1mb 52f 69f
8:06 10 14 mph 1010mb 52f 70f
8:00 11 15 mph 1009.9mb 53f 70f
7:54 10 17 mph 1009.8mb 53f 70f
7:48 11 16 mph 1009.7mb 52f 70f
7:42 11 17 mph 1009.7mb 53f 70f
7:36 9 16 mph 1009.6mb 53f 70f
7:30 9 15 mph 1009.6mb 53f 71f
7:24 11 16 mph 1009.5mb 53f 71f
7:12 10 20 mph 1009.4mb 53f 71f
7:06 10 15 mph 1009.4mb 53f 72f
7:00 8 14 mph 1009.5mb 53f 72f
6:54 11 17 mph 1009.4mb 53f 72f
6:48 9 13 mph 1009.3mb 53f 73f
6:42 8 17 mph 1009.1mb 53f 73f
6:36 10 16 mph 1009.1mb 53f 73f
6:30 10 18 mph 1009.1mb 53f 73f
6:24 13 20 mph 1009.1mb 53f 73f
6:18 7 14 mph 1009mb 54f 73f
6:12 8 13 mph 1009.1mb 54f 74f
6:06 7 14 mph 1009mb 54f 74f
6:00 9 15 mph 1009mb 55f 74f
5:54 8 14 mph 1009mb 55f 74f
5:48 11 16 mph 1009mb 55f 74f
5:42 9 15 mph 1009mb 55f 74f
5:36 8 13 mph 1009mb 55f 75f
5:30 8 14 mph 1009mb 55f 74f
5:24 7 13 mph 1009.1mb 55f 75f
5:18 11 22 mph 1009mb 54f 74f
5:12 10 18 mph 1009mb 54f 74f
5:06 9 18 mph 1009.1mb 54f 74f
5:00 10 17 mph 1009.1mb 54f 74f
4:54 10 20 mph 1009.1mb 54f 75f
4:48 10 15 mph 1009.2mb 54f 74f
4:42 10 18 mph 1009.2mb 55f 74f
4:36 11 17 mph 1009.3mb 54f 74f
4:30 13 21 mph 1009.3mb 55f 75f
4:24 11 17 mph 1009.3mb 55f 75f
4:18 9 16 mph 1009.4mb 55f 75f
4:12 7 16 mph 1009.4mb 55f 75f
4:06 10 17 mph 1009.4mb 55f 75f
4:00 8 17 mph 1009.5mb 54f 75f
3:54 9 16 mph 1009.5mb 54f 75f
3:48 7 15 mph 1009.5mb 55f 76f
3:42 11 15 mph 1009.6mb 55f 75f
3:36 11 16 mph 1009.6mb 54f 75f
3:30 11 15 mph 1009.7mb 53f 75f
3:24 10 15 mph 1009.7mb 54f 76f
3:18 8 15 mph 1009.7mb 54f 76f
3:12 9 13 mph 1009.7mb 54f 76f
3:06 9 15 mph 1009.8mb 53f 76f
3:00 9 14 mph 1009.8mb 54f 77f
2:54 7 15 mph 1009.7mb 54f 77f
2:48 8 16 mph 1009.6mb 54f 77f
2:42 9 17 mph 1009.6mb 53f 76f
2:36 10 20 mph 1009.5mb 52f 76f
2:30 10 15 mph 1009.6mb 53f 76f
2:24 9 17 mph 1009.6mb 53f -
2:18 14 21 mph 1009.6mb 53f -
2:12 11 16 mph 1009.7mb 53f -
2:06 13 17 mph 1009.7mb 52f -
2:00 9 15 mph 1009.7mb 52f -
1:54 13 16 mph 1009.8mb 51f -
1:48 10 15 mph 1009.9mb 51f -
1:42 8 15 mph 1009.8mb 52f -
1:36 9 14 mph 1009.8mb 52f -
1:30 2 6 mph 1009.8mb 50f 66f
1:24 5 6 mph 1009.8mb 51f 64f
1:18 6 8 mph 1009.8mb 52f 67f
1:12 5 6 mph 1009.8mb 51f 65f
1:06 3 6 mph 1009.8mb 51f 64f
1:00 3 6 mph 1009.9mb 52f 65f
12:54 5 7 mph 1010mb 51f 64f
12:48 7 8 mph 1010mb 51f 65f
12:42 6 8 mph 1010.1mb 51f 64f
12:36 6 9 mph 1010.2mb 51f 61f
12:30 5 9 mph 1010.2mb 51f 62f
12:24 7 10 mph 1010.3mb 52f 62f
12:18 9 10 mph 1010.3mb 51f 60f
12:12 6 9 mph 1010.3mb 52f 63f
12:06 8 9 mph 1010.3mb 51f 63f
12:00 5 8 mph 1010.3mb 51f 64f
11:54 8 11 mph 1010.3mb 50f 64f
11:48 7 10 mph 1010.4mb 50f 64f
11:42 7 9 mph 1010.4mb 51f 65f
11:36 10 14 mph 1010.5mb 51f 73f
11:30 7 13 mph 1010.4mb 51f 74f
11:24 7 13 mph 1010.4mb 51f 74f
11:18 8 11 mph 1010.4mb 50f 73f
11:12 8 11 mph 1010.4mb 50f 73f
11:06 11 14 mph 1010.4mb 50f 72f
11:00 13 15 mph 1010.4mb 51f 73f
10:54 11 15 mph 1010.4mb 50f 72f
10:48 11 16 mph 1010.4mb 50f 72f
10:42 14 16 mph 1010.4mb 50f 72f
10:36 13 17 mph 1010.4mb 50f 72f
10:30 9 11 mph 1010.5mb 51f 71f
10:24 7 15 mph 1010.5mb 50f 70f
10:18 11 14 mph 1010.5mb 50f 71f
10:12 13 14 mph 1010.5mb 50f 70f
10:06 11 17 mph 1010.6mb 50f 71f
10:00 15 18 mph 1010.6mb 51f 71f
9:54 13 17 mph 1010.6mb 51f 70f
9:48 13 15 mph 1010.6mb 51f 70f
9:42 11 17 mph 1010.6mb 51f 70f
9:36 11 15 mph 1010.6mb 52f 70f
9:30 10 14 mph 1010.7mb 53f 70f
9:24 9 14 mph 1010.7mb 52f 69f
9:18 9 16 mph 1010.6mb 52f 69f
9:12 11 15 mph 1010.5mb 52f 70f
9:06 11 13 mph 1010.5mb 52f 69f
9:00 11 13 mph 1010.5mb 52f 69f
8:54 7 8 mph 1010.5mb 52f 68f
8:48 7 8 mph 1010.5mb 52f 68f
8:42 7 10 mph 1010.5mb 52f 68f
8:36 9 13 mph 1010.4mb 52f 68f
8:30 8 10 mph 1010.4mb 52f 68f
8:24 11 14 mph 1010.4mb 52f 68f
8:18 8 10 mph 1010.4mb 52f 67f
8:12 9 10 mph 1010.3mb 52f 68f
8:06 7 11 mph 1010.3mb 52f 67f
8:00 9 13 mph 1010.2mb 52f 67f
7:54 9 11 mph 1010.2mb 52f 67f
7:48 9 11 mph 1010.1mb 52f 67f
7:42 9 13 mph 1010.1mb 52f 66f
7:36 10 13 mph 1010mb 52f 66f
7:30 11 14 mph 1009.9mb 52f 66f
7:24 13 16 mph 1009.9mb 53f 66f
7:18 11 15 mph 1009.8mb 53f 66f
7:12 10 15 mph 1009.7mb 53f 66f
7:06 13 15 mph 1009.6mb 53f 67f
7:00 10 15 mph 1009.6mb 53f 66f
6:54 11 14 mph 1009.5mb 53f 66f
6:48 10 13 mph 1009.5mb 53f 66f
6:42 9 14 mph 1009.6mb 53f 66f
6:36 9 13 mph 1009.5mb 53f 66f
6:30 8 11 mph 1009.4mb 53f 66f
6:24 7 9 mph 1009.3mb 53f 65f
6:18 7 9 mph 1009.3mb 52f 65f
6:12 5 8 mph 1009.2mb 52f 65f
6:06 5 6 mph 1009.1mb 52f 64f
6:00 3 6 mph 1009mb 52f 64f
5:54 3 5 mph 1009mb 52f 64f
5:48 2 3 mph 1008.9mb 52f 64f
5:42  -  2 mph 1008.9mb 52f 64f
5:36  -  2 mph 1008.8mb 52f 63f
5:30 2 3 mph 1008.7mb 52f 62f
5:24 2 3 mph 1008.7mb 52f 62f
5:18 3 5 mph 1008.6mb 53f 62f
5:12 3 8 mph 1008.5mb 53f 63f
5:06 7 9 mph 1008.5mb 53f 64f
5:00 8 9 mph 1008.2mb 53f 62f
4:54 5 11 mph 1008.2mb 53f 65f
4:48 7 11 mph 1008mb 53f 66f
4:42 7 11 mph 1007.9mb 53f 66f
4:36 9 14 mph 1007.8mb 52f 66f
4:30 9 16 mph 1007.7mb 52f 67f
4:24 9 15 mph 1007.6mb 52f 67f
4:18 9 13 mph 1007.6mb 52f 67f
4:12 9 14 mph 1007.6mb 52f 67f
4:06 9 14 mph 1007.5mb 52f 67f
4:00 9 15 mph 1007.5mb 52f 67f
3:54 9 15 mph 1007.4mb 52f 67f
3:48 10 14 mph 1007.3mb 52f 68f
3:42 8 13 mph 1007.3mb 52f 67f
3:36 9 13 mph 1007.2mb 52f 67f
3:30 10 14 mph 1007.2mb 52f 67f
3:24 9 14 mph 1007mb 52f 67f
3:18 8 13 mph 1006.9mb 52f 67f
3:12 9 14 mph 1007mb 52f 67f
3:06 7 10 mph 1006.9mb 52f 67f
3:00 7 11 mph 1006.9mb 52f 67f
2:54 8 10 mph 1006.9mb 52f 67f
2:48 7 10 mph 1006.9mb 52f -
2:42 7 10 mph 1006.9mb 52f -
2:36 7 10 mph 1006.9mb 52f -
2:30 6 8 mph 1006.8mb 52f 68f
2:24 2 6 mph 1006.8mb 52f 67f
2:18 2 3 mph 1006.9mb 52f 67f
2:12 1 5 mph 1006.8mb 52f 67f
2:06 3 5 mph 1006.7mb 52f 67f
2:00 2 5 mph 1006.7mb 52f 68f
1:54 3 6 mph 1006.7mb 52f 68f
1:48 3 6 mph 1006.6mb - -
1:42 5 6 mph 1006.6mb - -
1:36 3 6 mph 1006.6mb - -
1:30 6 7 mph 1006.7mb 52f 68f
1:24 3 6 mph 1006.6mb 52f 67f
1:18 5 5 mph 1006.6mb 52f 67f
1:12 3 5 mph 1006.6mb 51f 66f
1:06 3 5 mph 1006.5mb 51f 67f
1:00 2 5 mph 1006.6mb 51f 66f
12:54 3 6 mph 1006.6mb 51f 67f
12:48 5 5 mph 1006.5mb 51f 67f
12:42 3 7 mph 1006.5mb 52f 65f
12:36 6 10 mph 1006.4mb 52f 67f
12:30 10 14 mph 1006.4mb 52f 69f
12:24 8 14 mph 1006.4mb 53f 71f
12:18 7 11 mph 1006.1mb 53f 72f
12:12 8 16 mph 1006.1mb 54f 73f
12:06 8 16 mph 1006mb 53f 73f
12:00 9 14 mph 1005.9mb 53f 73f
Sáb 06/24 11:54 7 10 mph 1005.7mb 53f 72f
11:48 9 13 mph 1005.6mb 53f 73f
11:42 8 10 mph 1005.5mb 53f 73f
11:36 6 10 mph 1005.4mb 53f 73f
11:30 6 11 mph 1005.3mb 51f 72f
11:24 8 13 mph 1005.3mb 51f 72f
11:18 8 13 mph 1005.3mb 51f 72f
11:12 7 10 mph 1005.1mb 51f 73f
11:06 8 10 mph 1005.1mb 51f 73f
11:00 7 13 mph 1005.1mb 51f 73f
10:54 9 14 mph 1005.1mb 51f 73f
10:48 8 11 mph 1005mb 51f 74f
10:42 8 11 mph 1004.9mb 51f 74f
10:36 8 11 mph 1004.8mb 51f 74f
10:30 8 13 mph 1004.8mb 51f 74f
10:24 9 14 mph 1004.7mb 51f 74f
10:18 10 15 mph 1004.6mb 51f 73f
10:12 10 13 mph 1004.5mb 51f 73f
10:06 8 10 mph 1004.4mb 51f 74f
10:00 7 9 mph 1004.4mb 50f 74f
9:54 8 9 mph 1004.3mb 50f 74f
9:48 7 9 mph 1004.3mb 50f 74f
9:42 8 9 mph 1004.2mb 50f 74f
9:36 7 9 mph 1004.1mb 50f 74f
9:30 7 10 mph 1004mb 50f 75f
9:24 6 9 mph 1003.9mb 51f 75f
9:18 7 10 mph 1003.7mb 51f 75f
9:12 6 8 mph 1003.5mb 51f 76f
9:06 6 9 mph 1003.3mb 51f 75f
9:00 6 8 mph 1003.2mb 51f 75f
8:54 6 9 mph 1003.2mb 51f 76f
8:48 6 9 mph 1003.1mb 51f 76f
8:42 6 9 mph 1002.9mb 51f 77f
8:36 6 9 mph 1002.8mb 51f 76f
8:30 7 10 mph 1002.7mb 51f 77f
8:24 6 8 mph 1002.5mb 51f 77f
8:18 7 10 mph 1002.5mb 51f 77f
8:12 7 10 mph 1002.5mb 51f 77f
8:06 7 10 mph 1002.4mb 51f 78f
8:00 6 8 mph 1002.3mb 52f 78f
7:54 6 8 mph 1002.3mb 52f 78f
7:48 7 9 mph 1002.3mb 52f 78f
7:42 5 8 mph 1002.2mb 52f 79f
7:36 5 7 mph 1002.1mb 52f 79f
7:30 5 11 mph 1002.1mb 52f 79f
7:24 8 10 mph 1001.9mb 53f 78f
7:18 9 13 mph 1001.8mb 53f 78f
7:12 9 11 mph 1001.7mb 53f 79f
7:06 7 13 mph 1001.7mb 52f 79f
7:00 8 11 mph 1001.6mb 52f 79f
6:54 6 10 mph 1001.4mb 53f 79f
6:48 8 13 mph 1001.3mb 52f 78f
6:42 8 13 mph 1001.3mb 52f 79f
6:36 7 14 mph 1001.2mb 52f 79f
6:30 9 11 mph 1001mb 52f 78f
6:24 8 10 mph 1000.9mb 52f 78f
6:18 8 13 mph 1000.9mb 52f 78f
6:12 10 14 mph 1000.8mb 53f 78f
6:06 10 15 mph 1000.7mb 54f 78f
6:00 10 15 mph 1000.6mb 53f 78f
5:54 9 14 mph 1000.6mb 53f 77f
5:48 10 17 mph 1000.5mb 52f 79f
5:42 13 16 mph 1000.4mb 53f 78f
5:36 9 13 mph 1000.3mb 53f 79f
5:30 7 9 mph 1000.2mb 53f 77f
5:24 8 10 mph 1000mb 53f 77f
5:18 8 10 mph 1000mb 53f 77f
5:12 10 11 mph 999.9mb 53f 76f
5:06 10 14 mph 999.8mb 53f 76f
5:00 13 15 mph 999.7mb 53f 75f
4:54 13 16 mph 999.7mb 52f 76f
4:48 13 17 mph 999.7mb 52f 77f
4:42 16 21 mph 999.6mb 51f 78f
4:36 16 20 mph 999.5mb 51f 77f
4:30 17 20 mph 999.3mb 51f 77f
4:24 17 20 mph 999.2mb 51f 78f
4:18 14 21 mph 999.1mb 51f 78f
4:12 15 17 mph 998.9mb 51f 79f
4:06 13 16 mph 999mb 50f 79f
4:00 9 15 mph 999mb 50f 79f
3:54 9 14 mph 998.9mb 50f 79f
3:48 9 14 mph 998.9mb 50f 79f
3:42 7 13 mph 998.9mb 50f 80f
3:36 8 11 mph 998.9mb 50f 80f
3:30 7 15 mph 998.9mb 50f 80f
3:24 11 16 mph 998.9mb 50f 80f
3:18 6 17 mph 998.9mb 50f 80f
3:12 7 14 mph 998.9mb 50f 80f
3:06 9 14 mph 998.8mb 50f 80f
3:00 10 15 mph 998.8mb 50f 79f
2:54 7 15 mph 998.8mb 50f 80f
2:48 8 14 mph 998.8mb 50f 79f
2:42 9 17 mph 998.8mb 50f 79f
2:36 10 16 mph 998.8mb 50f 78f
2:30 14 17 mph 998.7mb 50f 78f
2:24 15 17 mph 998.8mb 50f 79f
2:18 6 14 mph 998.7mb 49f 79f
2:12 11 17 mph 998.6mb 49f 78f
2:06 9 17 mph 998.5mb 49f 79f
2:00 11 18 mph 998.4mb 49f 78f
1:54 14 21 mph 998.4mb 49f 78f
1:48 11 20 mph 998.3mb 50f 78f
1:42 13 17 mph 998.4mb 50f 77f
1:36 10 18 mph 998.3mb 50f 77f
1:30 8 15 mph 998.3mb 50f 77f
1:24 8 15 mph 998.2mb 50f 77f
1:18 10 16 mph 998.2mb 49f 76f
1:12 7 18 mph 998.2mb 49f 76f
1:06 8 14 mph 998.3mb 49f 75f
1:00 10 15 mph 998.3mb 49f 75f
12:54 7 13 mph 998.4mb 48f 74f
12:48 5 9 mph 998.5mb 49f 69f
12:42 5 14 mph 998.4mb 48f 70f
12:36 6 13 mph 998.4mb 48f 73f
12:30 8 15 mph 998.3mb 49f 73f
12:24 10 14 mph 998.2mb 48f 72f
12:18 9 16 mph 998.3mb 49f 72f
12:12 11 16 mph 998.2mb 48f 71f
12:06 11 15 mph 998.2mb 50f 71f
12:00 11 17 mph 998.2mb 50f 71f
11:54 9 16 mph 997.9mb 50f 71f
11:48 10 18 mph 997.7mb 50f 71f
11:42 11 20 mph 997.8mb 50f 70f
11:36 13 21 mph 997.7mb 50f 69f
11:30 8 17 mph 997.8mb 49f 70f
11:24 11 16 mph 997.7mb 48f 70f
11:18 8 11 mph 997.4mb 48f 70f
11:12 10 21 mph 996.8mb 51f 69f
11:06 13 20 mph 996.8mb 50f 69f
11:00 14 23 mph 996.9mb 50f 69f
10:54 11 20 mph 997mb 50f 70f
10:48 14 22 mph 996.9mb 50f 69f
10:42 7 16 mph 996.5mb 49f 70f
10:36 11 18 mph 996.5mb 49f 70f
10:30 11 21 mph 996.2mb 48f 70f
10:24 8 21 mph 996mb 48f 70f
10:18 15 22 mph 996.2mb 48f 69f
10:12 15 18 mph 996mb 49f 69f
10:06 13 20 mph 996mb 49f 69f
10:00 13 20 mph 996.2mb 49f 69f
9:54 14 22 mph 996.3mb 49f 68f
9:48 14 21 mph 996.5mb 49f 68f
9:42 11 18 mph 996.6mb 49f 68f
9:36 13 23 mph 996.5mb 49f 68f
9:30 16 24 mph 996.3mb 49f 68f
9:24 14 23 mph 996.3mb 49f 68f
9:18 13 22 mph 996.4mb 49f 69f
9:12 16 25 mph 996.3mb 49f 69f
9:06 13 24 mph 996.1mb 49f 69f
9:00 14 23 mph 996.2mb 49f 69f
8:54 13 25 mph 996.1mb 49f 69f
8:48 17 26 mph 996mb 49f 69f
8:42 14 21 mph 996.1mb 49f 69f
8:36 14 22 mph 996.2mb 49f 68f
8:30 14 22 mph 996.1mb 49f 69f
8:24 14 25 mph 996.3mb 49f 68f
8:18 15 25 mph 996.2mb 49f 68f
8:12 15 22 mph 996.2mb 49f 68f
8:06 15 24 mph 996.3mb 49f 67f
8:00 13 22 mph 996.4mb 49f 67f
7:54 15 26 mph 996.6mb 49f 67f
7:48 14 26 mph 996.6mb 49f 67f
7:42 15 25 mph 996.8mb 49f 67f
7:36 15 25 mph 996.7mb 49f 66f
7:30 16 26 mph 996.6mb 49f 66f
7:24 15 23 mph 996.6mb 49f 66f
7:18 18 25 mph 996.8mb 49f 66f
7:12 13 22 mph 996.9mb 49f 66f
7:06 16 26 mph 996.8mb 49f 66f
7:00 13 22 mph 996.8mb 49f 66f
6:54 14 26 mph 997mb 49f 66f
6:48 13 28 mph 997mb 49f 66f
6:42 16 22 mph 996.9mb 49f 66f
6:36 15 25 mph 996.9mb 49f 66f
6:30 14 22 mph 996.8mb 49f 66f
6:24 16 24 mph 996.8mb 49f 66f
6:18 15 23 mph 996.8mb 49f 66f
6:12 14 24 mph 996.8mb 49f 66f
6:06 11 18 mph 996.9mb 49f 67f
6:00 14 21 mph 996.8mb 49f 67f
5:54 13 18 mph 996.9mb 49f 67f
5:48 8 17 mph 996.9mb 49f 67f
5:42 14 20 mph 997.1mb 49f 67f
5:36 15 21 mph 997.2mb 49f 67f
5:30 11 18 mph 997.2mb 48f 67f
5:24 10 18 mph 997.2mb 48f 68f
5:18 15 22 mph 997.1mb 48f 68f
5:12 11 21 mph 997.1mb 49f 68f
5:06 15 22 mph 997.1mb 49f 67f
5:00 13 22 mph 997mb 49f 67f
4:54 10 18 mph 997.1mb 49f 67f
4:48 15 21 mph 997.1mb 49f 68f
4:42 14 22 mph 997.2mb 49f 67f
4:36 14 22 mph 997.2mb 49f 67f
4:30 11 17 mph 997.3mb 49f 67f
4:24 14 25 mph 997.2mb 49f 67f
4:18 14 21 mph 997.3mb 49f 69f
4:12 11 23 mph 997.1mb 49f 68f
4:06 13 17 mph 997.1mb 49f 68f
4:00 15 22 mph 997.2mb 49f 68f